sensor_id;sensor_type;location;lat;lon;timestamp;P1;durP1;ratioP1;P2;durP2;ratioP2
22752;SDS011;11543;43.144;24.684;2022-09-03T00:00:33;0.50;;;0.45;;
22752;SDS011;11543;43.144;24.684;2022-09-03T00:05:55;0.60;;;0.60;;
22752;SDS011;11543;43.144;24.684;2022-09-03T00:08:32;0.82;;;0.52;;
22752;SDS011;11543;43.144;24.684;2022-09-03T00:11:09;2.42;;;0.68;;
22752;SDS011;11543;43.144;24.684;2022-09-03T00:17:28;0.57;;;0.57;;
22752;SDS011;11543;43.144;24.684;2022-09-03T00:22:31;0.90;;;0.80;;
22752;SDS011;11543;43.144;24.684;2022-09-03T00:25:01;1.15;;;0.65;;
22752;SDS011;11543;43.144;24.684;2022-09-03T00:27:30;0.95;;;0.60;;
22752;SDS011;11543;43.144;24.684;2022-09-03T00:30:05;3.17;;;0.50;;
22752;SDS011;11543;43.144;24.684;2022-09-03T00:35:46;0.93;;;0.60;;
22752;SDS011;11543;43.144;24.684;2022-09-03T00:38:15;0.50;;;0.50;;
22752;SDS011;11543;43.144;24.684;2022-09-03T00:40:44;0.50;;;0.50;;
22752;SDS011;11543;43.144;24.684;2022-09-03T00:52:18;1.33;;;0.60;;
22752;SDS011;11543;43.144;24.684;2022-09-03T01:00:29;1.27;;;0.80;;
22752;SDS011;11543;43.144;24.684;2022-09-03T01:30:47;1.90;;;0.80;;
22752;SDS011;11543;43.144;24.684;2022-09-03T01:36:05;0.98;;;0.88;;
22752;SDS011;11543;43.144;24.684;2022-09-03T01:41:50;3.40;;;0.70;;
22752;SDS011;11543;43.144;24.684;2022-09-03T01:53:02;1.02;;;0.80;;
22752;SDS011;11543;43.144;24.684;2022-09-03T02:01:32;2.83;;;1.15;;
22752;SDS011;11543;43.144;24.684;2022-09-03T02:04:19;2.85;;;0.90;;
22752;SDS011;11543;43.144;24.684;2022-09-03T02:06:47;2.92;;;1.23;;
22752;SDS011;11543;43.144;24.684;2022-09-03T02:09:14;2.95;;;1.50;;
22752;SDS011;11543;43.144;24.684;2022-09-03T02:11:41;4.78;;;1.40;;
22752;SDS011;11543;43.144;24.684;2022-09-03T02:14:10;2.08;;;1.70;;
22752;SDS011;11543;43.144;24.684;2022-09-03T02:16:37;3.90;;;1.50;;
22752;SDS011;11543;43.144;24.684;2022-09-03T02:19:07;3.10;;;1.63;;
22752;SDS011;11543;43.144;24.684;2022-09-03T02:21:39;4.70;;;2.00;;
22752;SDS011;11543;43.144;24.684;2022-09-03T02:24:11;2.22;;;1.92;;
22752;SDS011;11543;43.144;24.684;2022-09-03T02:26:37;3.35;;;2.00;;
22752;SDS011;11543;43.144;24.684;2022-09-03T02:29:03;2.30;;;2.10;;
22752;SDS011;11543;43.144;24.684;2022-09-03T02:31:28;2.92;;;2.00;;
22752;SDS011;11543;43.144;24.684;2022-09-03T02:33:55;3.53;;;2.22;;
22752;SDS011;11543;43.144;24.684;2022-09-03T02:36:41;2.70;;;1.90;;
22752;SDS011;11543;43.144;24.684;2022-09-03T02:39:09;3.50;;;1.80;;
22752;SDS011;11543;43.144;24.684;2022-09-03T02:41:36;3.03;;;1.92;;
22752;SDS011;11543;43.144;24.684;2022-09-03T02:44:09;3.15;;;2.20;;
22752;SDS011;11543;43.144;24.684;2022-09-03T02:46:44;4.00;;;2.10;;
22752;SDS011;11543;43.144;24.684;2022-09-03T02:49:14;6.63;;;2.95;;
22752;SDS011;11543;43.144;24.684;2022-09-03T02:51:40;4.10;;;2.95;;
22752;SDS011;11543;43.144;24.684;2022-09-03T02:54:07;7.43;;;3.80;;
22752;SDS011;11543;43.144;24.684;2022-09-03T02:56:34;9.38;;;3.97;;
22752;SDS011;11543;43.144;24.684;2022-09-03T02:58:59;5.82;;;4.68;;
22752;SDS011;11543;43.144;24.684;2022-09-03T03:01:26;5.10;;;4.30;;
22752;SDS011;11543;43.144;24.684;2022-09-03T03:03:52;8.25;;;4.20;;
22752;SDS011;11543;43.144;24.684;2022-09-03T03:06:18;8.43;;;4.60;;
22752;SDS011;11543;43.144;24.684;2022-09-03T03:08:44;5.57;;;3.90;;
22752;SDS011;11543;43.144;24.684;2022-09-03T03:11:11;6.32;;;4.20;;
22752;SDS011;11543;43.144;24.684;2022-09-03T03:13:42;4.65;;;3.95;;
22752;SDS011;11543;43.144;24.684;2022-09-03T03:16:08;6.13;;;3.70;;
22752;SDS011;11543;43.144;24.684;2022-09-03T03:18:34;6.40;;;3.90;;
22752;SDS011;11543;43.144;24.684;2022-09-03T03:21:07;6.97;;;4.35;;
22752;SDS011;11543;43.144;24.684;2022-09-03T03:23:34;6.90;;;4.93;;
22752;SDS011;11543;43.144;24.684;2022-09-03T03:26:04;10.57;;;4.60;;
22752;SDS011;11543;43.144;24.684;2022-09-03T03:31:03;8.52;;;5.30;;
22752;SDS011;11543;43.144;24.684;2022-09-03T03:33:36;5.65;;;4.80;;
22752;SDS011;11543;43.144;24.684;2022-09-03T03:36:06;7.03;;;5.03;;
22752;SDS011;11543;43.144;24.684;2022-09-03T03:38:33;8.18;;;5.70;;
22752;SDS011;11543;43.144;24.684;2022-09-03T03:41:05;6.93;;;5.25;;
22752;SDS011;11543;43.144;24.684;2022-09-03T03:43:36;8.30;;;5.20;;
22752;SDS011;11543;43.144;24.684;2022-09-03T03:46:03;8.27;;;4.93;;
22752;SDS011;11543;43.144;24.684;2022-09-03T03:48:29;7.07;;;5.75;;
22752;SDS011;11543;43.144;24.684;2022-09-03T03:50:58;7.38;;;4.93;;
22752;SDS011;11543;43.144;24.684;2022-09-03T03:53:27;5.80;;;4.97;;
22752;SDS011;11543;43.144;24.684;2022-09-03T03:55:59;8.35;;;5.22;;
22752;SDS011;11543;43.144;24.684;2022-09-03T03:58:29;10.55;;;5.60;;
22752;SDS011;11543;43.144;24.684;2022-09-03T04:01:03;7.07;;;5.32;;
22752;SDS011;11543;43.144;24.684;2022-09-03T04:03:33;8.10;;;5.47;;
22752;SDS011;11543;43.144;24.684;2022-09-03T04:05:59;5.97;;;5.00;;
22752;SDS011;11543;43.144;24.684;2022-09-03T04:08:28;6.63;;;4.80;;
22752;SDS011;11543;43.144;24.684;2022-09-03T04:10:53;6.35;;;5.05;;
22752;SDS011;11543;43.144;24.684;2022-09-03T04:13:23;7.53;;;5.57;;
22752;SDS011;11543;43.144;24.684;2022-09-03T04:15:48;8.20;;;5.28;;
22752;SDS011;11543;43.144;24.684;2022-09-03T04:18:14;6.60;;;4.45;;
22752;SDS011;11543;43.144;24.684;2022-09-03T04:20:40;6.80;;;4.93;;
22752;SDS011;11543;43.144;24.684;2022-09-03T04:23:05;6.22;;;4.72;;
22752;SDS011;11543;43.144;24.684;2022-09-03T04:25:31;5.90;;;4.60;;
22752;SDS011;11543;43.144;24.684;2022-09-03T04:27:56;6.78;;;4.75;;
22752;SDS011;11543;43.144;24.684;2022-09-03T04:30:22;7.45;;;4.50;;
22752;SDS011;11543;43.144;24.684;2022-09-03T04:32:51;6.57;;;4.82;;
22752;SDS011;11543;43.144;24.684;2022-09-03T04:35:20;7.40;;;4.50;;
22752;SDS011;11543;43.144;24.684;2022-09-03T04:37:46;10.82;;;4.70;;
22752;SDS011;11543;43.144;24.684;2022-09-03T04:40:12;8.88;;;4.57;;
22752;SDS011;11543;43.144;24.684;2022-09-03T04:42:37;6.25;;;5.07;;
22752;SDS011;11543;43.144;24.684;2022-09-03T04:45:03;6.10;;;4.40;;
22752;SDS011;11543;43.144;24.684;2022-09-03T04:47:29;7.85;;;4.45;;
22752;SDS011;11543;43.144;24.684;2022-09-03T04:49:55;5.85;;;4.43;;
22752;SDS011;11543;43.144;24.684;2022-09-03T04:52:21;5.85;;;4.30;;
22752;SDS011;11543;43.144;24.684;2022-09-03T04:54:46;6.30;;;4.68;;
22752;SDS011;11543;43.144;24.684;2022-09-03T04:57:12;8.60;;;4.60;;
22752;SDS011;11543;43.144;24.684;2022-09-03T04:59:37;7.75;;;4.55;;
22752;SDS011;11543;43.144;24.684;2022-09-03T05:02:05;8.80;;;4.55;;
22752;SDS011;11543;43.144;24.684;2022-09-03T05:04:31;10.10;;;4.60;;
22752;SDS011;11543;43.144;24.684;2022-09-03T05:06:56;7.88;;;4.68;;
22752;SDS011;11543;43.144;24.684;2022-09-03T05:09:22;9.30;;;4.40;;
22752;SDS011;11543;43.144;24.684;2022-09-03T05:11:47;7.70;;;4.80;;
22752;SDS011;11543;43.144;24.684;2022-09-03T05:14:13;9.57;;;4.60;;
22752;SDS011;11543;43.144;24.684;2022-09-03T05:16:38;8.00;;;5.03;;
22752;SDS011;11543;43.144;24.684;2022-09-03T05:19:04;6.53;;;4.65;;
22752;SDS011;11543;43.144;24.684;2022-09-03T05:21:30;6.43;;;4.35;;
22752;SDS011;11543;43.144;24.684;2022-09-03T05:23:56;6.32;;;4.45;;
22752;SDS011;11543;43.144;24.684;2022-09-03T05:26:24;7.10;;;4.03;;
22752;SDS011;11543;43.144;24.684;2022-09-03T05:28:55;8.55;;;4.55;;
22752;SDS011;11543;43.144;24.684;2022-09-03T05:31:23;5.45;;;4.38;;
22752;SDS011;11543;43.144;24.684;2022-09-03T05:33:51;5.47;;;4.28;;
22752;SDS011;11543;43.144;24.684;2022-09-03T05:36:26;6.10;;;3.88;;
22752;SDS011;11543;43.144;24.684;2022-09-03T05:38:53;5.72;;;4.07;;
22752;SDS011;11543;43.144;24.684;2022-09-03T05:41:20;8.38;;;4.28;;
22752;SDS011;11543;43.144;24.684;2022-09-03T05:43:47;6.60;;;4.15;;
22752;SDS011;11543;43.144;24.684;2022-09-03T05:46:20;8.13;;;4.18;;
22752;SDS011;11543;43.144;24.684;2022-09-03T05:48:50;6.88;;;4.00;;
22752;SDS011;11543;43.144;24.684;2022-09-03T05:51:16;7.72;;;4.07;;
22752;SDS011;11543;43.144;24.684;2022-09-03T05:53:46;5.95;;;4.00;;
22752;SDS011;11543;43.144;24.684;2022-09-03T05:56:14;7.82;;;4.18;;
22752;SDS011;11543;43.144;24.684;2022-09-03T05:58:42;7.13;;;4.50;;
22752;SDS011;11543;43.144;24.684;2022-09-03T06:03:35;4.40;;;4.00;;
22752;SDS011;11543;43.144;24.684;2022-09-03T06:06:01;6.90;;;3.88;;
22752;SDS011;11543;43.144;24.684;2022-09-03T06:08:27;6.70;;;3.88;;
22752;SDS011;11543;43.144;24.684;2022-09-03T06:10:56;5.75;;;4.30;;
22752;SDS011;11543;43.144;24.684;2022-09-03T06:13:23;4.88;;;3.72;;
22752;SDS011;11543;43.144;24.684;2022-09-03T06:15:48;5.68;;;3.58;;
22752;SDS011;11543;43.144;24.684;2022-09-03T06:18:14;7.97;;;4.18;;
22752;SDS011;11543;43.144;24.684;2022-09-03T06:20:39;4.72;;;3.95;;
22752;SDS011;11543;43.144;24.684;2022-09-03T06:23:05;4.85;;;3.83;;
22752;SDS011;11543;43.144;24.684;2022-09-03T06:25:30;4.50;;;3.80;;
22752;SDS011;11543;43.144;24.684;2022-09-03T06:27:56;6.68;;;4.00;;
22752;SDS011;11543;43.144;24.684;2022-09-03T06:30:21;5.65;;;4.00;;
22752;SDS011;11543;43.144;24.684;2022-09-03T06:32:48;5.07;;;3.60;;
22752;SDS011;11543;43.144;24.684;2022-09-03T06:35:14;8.05;;;3.80;;
22752;SDS011;11543;43.144;24.684;2022-09-03T06:37:41;6.50;;;3.95;;
22752;SDS011;11543;43.144;24.684;2022-09-03T06:40:07;7.30;;;3.80;;
22752;SDS011;11543;43.144;24.684;2022-09-03T06:42:39;6.28;;;4.32;;
22752;SDS011;11543;43.144;24.684;2022-09-03T06:45:08;6.70;;;3.88;;
22752;SDS011;11543;43.144;24.684;2022-09-03T06:47:35;7.28;;;4.93;;
22752;SDS011;11543;43.144;24.684;2022-09-03T06:50:00;7.30;;;4.90;;
22752;SDS011;11543;43.144;24.684;2022-09-03T06:52:26;10.73;;;5.82;;
22752;SDS011;11543;43.144;24.684;2022-09-03T06:54:52;11.10;;;6.63;;
22752;SDS011;11543;43.144;24.684;2022-09-03T06:57:17;10.90;;;5.75;;
22752;SDS011;11543;43.144;24.684;2022-09-03T06:59:43;12.40;;;6.38;;
22752;SDS011;11543;43.144;24.684;2022-09-03T07:02:09;10.18;;;5.65;;
22752;SDS011;11543;43.144;24.684;2022-09-03T07:04:34;10.88;;;6.00;;
22752;SDS011;11543;43.144;24.684;2022-09-03T07:07:00;10.73;;;6.13;;
22752;SDS011;11543;43.144;24.684;2022-09-03T07:09:26;17.23;;;8.68;;
22752;SDS011;11543;43.144;24.684;2022-09-03T07:11:51;14.88;;;8.07;;
22752;SDS011;11543;43.144;24.684;2022-09-03T07:14:18;15.15;;;8.00;;
22752;SDS011;11543;43.144;24.684;2022-09-03T07:16:44;12.40;;;6.35;;
22752;SDS011;11543;43.144;24.684;2022-09-03T07:19:11;11.02;;;6.50;;
22752;SDS011;11543;43.144;24.684;2022-09-03T07:21:37;16.02;;;9.68;;
22752;SDS011;11543;43.144;24.684;2022-09-03T07:24:07;14.45;;;9.68;;
22752;SDS011;11543;43.144;24.684;2022-09-03T07:26:34;20.50;;;11.38;;
22752;SDS011;11543;43.144;24.684;2022-09-03T07:29:02;11.23;;;7.15;;
22752;SDS011;11543;43.144;24.684;2022-09-03T07:31:39;7.38;;;4.45;;
22752;SDS011;11543;43.144;24.684;2022-09-03T07:34:06;6.07;;;4.50;;
22752;SDS011;11543;43.144;24.684;2022-09-03T07:36:38;6.60;;;4.00;;
22752;SDS011;11543;43.144;24.684;2022-09-03T07:39:08;8.23;;;4.55;;
22752;SDS011;11543;43.144;24.684;2022-09-03T07:41:38;8.80;;;4.72;;
22752;SDS011;11543;43.144;24.684;2022-09-03T07:44:08;10.85;;;5.50;;
22752;SDS011;11543;43.144;24.684;2022-09-03T07:46:34;7.95;;;4.35;;
22752;SDS011;11543;43.144;24.684;2022-09-03T07:49:01;18.83;;;9.35;;
22752;SDS011;11543;43.144;24.684;2022-09-03T07:51:27;11.43;;;7.00;;
22752;SDS011;11543;43.144;24.684;2022-09-03T07:53:56;7.05;;;4.20;;
22752;SDS011;11543;43.144;24.684;2022-09-03T07:56:31;6.65;;;4.00;;
22752;SDS011;11543;43.144;24.684;2022-09-03T07:58:59;4.80;;;4.25;;
22752;SDS011;11543;43.144;24.684;2022-09-03T08:01:25;9.25;;;5.57;;
22752;SDS011;11543;43.144;24.684;2022-09-03T08:03:58;24.23;;;11.02;;
22752;SDS011;11543;43.144;24.684;2022-09-03T08:06:26;17.35;;;8.52;;
22752;SDS011;11543;43.144;24.684;2022-09-03T08:08:59;19.00;;;10.77;;
22752;SDS011;11543;43.144;24.684;2022-09-03T08:11:27;5.82;;;4.53;;
22752;SDS011;11543;43.144;24.684;2022-09-03T08:13:55;6.03;;;4.13;;
22752;SDS011;11543;43.144;24.684;2022-09-03T08:16:25;5.78;;;3.63;;
22752;SDS011;11543;43.144;24.684;2022-09-03T08:18:51;4.57;;;3.70;;
22752;SDS011;11543;43.144;24.684;2022-09-03T08:21:17;5.90;;;3.33;;
22752;SDS011;11543;43.144;24.684;2022-09-03T08:23:47;5.85;;;3.47;;
22752;SDS011;11543;43.144;24.684;2022-09-03T08:26:15;4.43;;;3.88;;
22752;SDS011;11543;43.144;24.684;2022-09-03T08:28:42;4.80;;;3.72;;
22752;SDS011;11543;43.144;24.684;2022-09-03T08:31:17;6.82;;;3.50;;
22752;SDS011;11543;43.144;24.684;2022-09-03T08:33:47;4.60;;;3.67;;
22752;SDS011;11543;43.144;24.684;2022-09-03T08:36:21;3.90;;;3.38;;
22752;SDS011;11543;43.144;24.684;2022-09-03T08:38:49;5.88;;;3.75;;
22752;SDS011;11543;43.144;24.684;2022-09-03T08:52:32;3.90;;;3.38;;
22752;SDS011;11543;43.144;24.684;2022-09-03T09:14:24;9.85;;;3.95;;
22752;SDS011;11543;43.144;24.684;2022-09-03T09:17:03;6.53;;;3.78;;
22752;SDS011;11543;43.144;24.684;2022-09-03T09:22:29;4.22;;;3.70;;
22752;SDS011;11543;43.144;24.684;2022-09-03T09:25:16;5.70;;;4.28;;
22752;SDS011;11543;43.144;24.684;2022-09-03T09:27:51;6.20;;;3.95;;
22752;SDS011;11543;43.144;24.684;2022-09-03T09:30:23;6.22;;;4.50;;
22752;SDS011;11543;43.144;24.684;2022-09-03T09:32:49;5.88;;;4.05;;
22752;SDS011;11543;43.144;24.684;2022-09-03T09:35:17;6.93;;;4.28;;
22752;SDS011;11543;43.144;24.684;2022-09-03T09:37:56;6.63;;;4.05;;
22752;SDS011;11543;43.144;24.684;2022-09-03T09:40:43;6.22;;;4.38;;
22752;SDS011;11543;43.144;24.684;2022-09-03T09:45:51;7.13;;;4.65;;
22752;SDS011;11543;43.144;24.684;2022-09-03T09:54:24;5.55;;;4.72;;
22752;SDS011;11543;43.144;24.684;2022-09-03T09:57:02;5.35;;;4.70;;
22752;SDS011;11543;43.144;24.684;2022-09-03T09:59:29;4.97;;;4.50;;
22752;SDS011;11543;43.144;24.684;2022-09-03T10:02:03;5.60;;;4.97;;
22752;SDS011;11543;43.144;24.684;2022-09-03T10:04:34;5.60;;;4.90;;
22752;SDS011;11543;43.144;24.684;2022-09-03T10:07:04;6.10;;;5.15;;
22752;SDS011;11543;43.144;24.684;2022-09-03T10:09:44;9.32;;;5.55;;
22752;SDS011;11543;43.144;24.684;2022-09-03T10:17:58;10.23;;;6.80;;
22752;SDS011;11543;43.144;24.684;2022-09-03T10:20:36;6.90;;;6.20;;
22752;SDS011;11543;43.144;24.684;2022-09-03T10:23:24;7.80;;;6.63;;
22752;SDS011;11543;43.144;24.684;2022-09-03T10:25:56;7.47;;;6.50;;
22752;SDS011;11543;43.144;24.684;2022-09-03T10:28:31;8.32;;;7.00;;
22752;SDS011;11543;43.144;24.684;2022-09-03T10:37:10;10.55;;;7.15;;
22752;SDS011;11543;43.144;24.684;2022-09-03T10:42:33;9.82;;;7.35;;
22752;SDS011;11543;43.144;24.684;2022-09-03T10:45:20;9.27;;;7.55;;
22752;SDS011;11543;43.144;24.684;2022-09-03T10:48:06;7.47;;;6.45;;
22752;SDS011;11543;43.144;24.684;2022-09-03T11:01:06;7.13;;;5.90;;
22752;SDS011;11543;43.144;24.684;2022-09-03T11:06:31;9.20;;;5.93;;
22752;SDS011;11543;43.144;24.684;2022-09-03T11:14:06;7.75;;;5.93;;
22752;SDS011;11543;43.144;24.684;2022-09-03T11:16:52;7.07;;;5.55;;
22752;SDS011;11543;43.144;24.684;2022-09-03T11:19:26;7.45;;;5.82;;
22752;SDS011;11543;43.144;24.684;2022-09-03T11:22:02;9.15;;;6.05;;
22752;SDS011;11543;43.144;24.684;2022-09-03T11:24:30;8.98;;;6.22;;
22752;SDS011;11543;43.144;24.684;2022-09-03T11:27:01;9.32;;;5.93;;
22752;SDS011;11543;43.144;24.684;2022-09-03T11:29:43;8.77;;;6.38;;
22752;SDS011;11543;43.144;24.684;2022-09-03T11:35:15;7.22;;;5.75;;
22752;SDS011;11543;43.144;24.684;2022-09-03T11:37:52;6.97;;;5.75;;
22752;SDS011;11543;43.144;24.684;2022-09-03T11:40:28;6.45;;;5.55;;
22752;SDS011;11543;43.144;24.684;2022-09-03T11:43:05;5.78;;;5.20;;
22752;SDS011;11543;43.144;24.684;2022-09-03T11:45:37;6.90;;;5.65;;
22752;SDS011;11543;43.144;24.684;2022-09-03T11:48:15;6.47;;;4.47;;
22752;SDS011;11543;43.144;24.684;2022-09-03T11:50:51;5.97;;;5.07;;
22752;SDS011;11543;43.144;24.684;2022-09-03T11:56:28;6.78;;;4.78;;
22752;SDS011;11543;43.144;24.684;2022-09-03T11:58:32;6.55;;;4.32;;
22752;SDS011;11543;43.144;24.684;2022-09-03T12:01:01;5.00;;;4.50;;
22752;SDS011;11543;43.144;24.684;2022-09-03T12:03:34;5.35;;;4.50;;
22752;SDS011;11543;43.144;24.684;2022-09-03T12:12:10;4.25;;;3.85;;
22752;SDS011;11543;43.144;24.684;2022-09-03T12:20:34;6.55;;;4.65;;
22752;SDS011;11543;43.144;24.684;2022-09-03T12:23:00;5.55;;;4.88;;
22752;SDS011;11543;43.144;24.684;2022-09-03T12:25:27;5.70;;;4.78;;
22752;SDS011;11543;43.144;24.684;2022-09-03T12:27:53;5.10;;;4.60;;
22752;SDS011;11543;43.144;24.684;2022-09-03T12:30:22;7.22;;;4.57;;
22752;SDS011;11543;43.144;24.684;2022-09-03T12:32:49;5.85;;;4.65;;
22752;SDS011;11543;43.144;24.684;2022-09-03T12:35:23;5.68;;;4.32;;
22752;SDS011;11543;43.144;24.684;2022-09-03T12:37:50;6.70;;;4.35;;
22752;SDS011;11543;43.144;24.684;2022-09-03T12:40:22;5.07;;;4.57;;
22752;SDS011;11543;43.144;24.684;2022-09-03T12:42:50;6.10;;;5.50;;
22752;SDS011;11543;43.144;24.684;2022-09-03T12:45:40;10.35;;;6.90;;
22752;SDS011;11543;43.144;24.684;2022-09-03T12:48:15;7.05;;;6.35;;
22752;SDS011;11543;43.144;24.684;2022-09-03T12:50:44;13.85;;;6.55;;
22752;SDS011;11543;43.144;24.684;2022-09-03T12:53:32;6.88;;;6.18;;
22752;SDS011;11543;43.144;24.684;2022-09-03T12:55:57;6.72;;;6.03;;
22752;SDS011;11543;43.144;24.684;2022-09-03T13:01:11;6.15;;;5.55;;
22752;SDS011;11543;43.144;24.684;2022-09-03T13:03:49;8.05;;;5.90;;
22752;SDS011;11543;43.144;24.684;2022-09-03T13:06:29;6.28;;;5.68;;
22752;SDS011;11543;43.144;24.684;2022-09-03T13:09:02;10.30;;;6.50;;
22752;SDS011;11543;43.144;24.684;2022-09-03T13:11:32;7.22;;;6.50;;
22752;SDS011;11543;43.144;24.684;2022-09-03T13:14:06;9.00;;;6.78;;
22752;SDS011;11543;43.144;24.684;2022-09-03T13:16:45;7.63;;;6.90;;
22752;SDS011;11543;43.144;24.684;2022-09-03T13:24:58;9.18;;;7.60;;
22752;SDS011;11543;43.144;24.684;2022-09-03T13:27:36;8.90;;;7.55;;
22752;SDS011;11543;43.144;24.684;2022-09-03T13:30:22;10.38;;;7.70;;
22752;SDS011;11543;43.144;24.684;2022-09-03T13:33:06;8.93;;;7.78;;
22752;SDS011;11543;43.144;24.684;2022-09-03T13:35:39;8.32;;;7.53;;
22752;SDS011;11543;43.144;24.684;2022-09-03T13:38:45;10.20;;;7.88;;
22752;SDS011;11543;43.144;24.684;2022-09-03T13:41:31;10.02;;;8.10;;
22752;SDS011;11543;43.144;24.684;2022-09-03T13:52:31;8.32;;;7.50;;
22752;SDS011;11543;43.144;24.684;2022-09-03T13:55:30;11.05;;;8.43;;
22752;SDS011;11543;43.144;24.684;2022-09-03T14:00:44;9.98;;;7.97;;
22752;SDS011;11543;43.144;24.684;2022-09-03T14:04:16;8.75;;;7.68;;
22752;SDS011;11543;43.144;24.684;2022-09-03T14:06:25;9.00;;;7.95;;
22752;SDS011;11543;43.144;24.684;2022-09-03T14:11:46;10.70;;;9.68;;
22752;SDS011;11543;43.144;24.684;2022-09-03T14:14:36;11.15;;;9.95;;
22752;SDS011;11543;43.144;24.684;2022-09-03T14:19:46;10.43;;;9.43;;
22752;SDS011;11543;43.144;24.684;2022-09-03T14:22:23;10.55;;;9.45;;
22752;SDS011;11543;43.144;24.684;2022-09-03T14:25:07;9.95;;;8.95;;
22752;SDS011;11543;43.144;24.684;2022-09-03T14:27:40;10.07;;;9.07;;
22752;SDS011;11543;43.144;24.684;2022-09-03T14:38:20;11.23;;;10.00;;
22752;SDS011;11543;43.144;24.684;2022-09-03T14:43:47;13.68;;;10.77;;
22752;SDS011;11543;43.144;24.684;2022-09-03T15:15:21;19.65;;;17.35;;
22752;SDS011;11543;43.144;24.684;2022-09-03T15:20:57;15.75;;;13.27;;
22752;SDS011;11543;43.144;24.684;2022-09-03T15:34:39;9.98;;;8.85;;
22752;SDS011;11543;43.144;24.684;2022-09-03T15:37:12;10.30;;;8.70;;
22752;SDS011;11543;43.144;24.684;2022-09-03T15:39:44;9.75;;;8.52;;
22752;SDS011;11543;43.144;24.684;2022-09-03T15:44:53;10.43;;;8.98;;
22752;SDS011;11543;43.144;24.684;2022-09-03T15:47:39;12.18;;;9.63;;
22752;SDS011;11543;43.144;24.684;2022-09-03T15:50:38;10.07;;;9.07;;
22752;SDS011;11543;43.144;24.684;2022-09-03T15:56:06;11.75;;;8.63;;
22752;SDS011;11543;43.144;24.684;2022-09-03T15:58:36;14.57;;;11.57;;
22752;SDS011;11543;43.144;24.684;2022-09-03T16:01:31;13.00;;;9.50;;
22752;SDS011;11543;43.144;24.684;2022-09-03T16:18:25;10.60;;;9.15;;
22752;SDS011;11543;43.144;24.684;2022-09-03T16:23:40;13.27;;;9.63;;
22752;SDS011;11543;43.144;24.684;2022-09-03T16:26:17;18.92;;;12.10;;
22752;SDS011;11543;43.144;24.684;2022-09-03T16:29:00;15.55;;;10.30;;
22752;SDS011;11543;43.144;24.684;2022-09-03T16:42:51;20.42;;;11.95;;
22752;SDS011;11543;43.144;24.684;2022-09-03T16:59:36;16.55;;;10.68;;
22752;SDS011;11543;43.144;24.684;2022-09-03T17:10:21;21.17;;;11.15;;
22752;SDS011;11543;43.144;24.684;2022-09-03T17:12:58;15.75;;;10.30;;
22752;SDS011;11543;43.144;24.684;2022-09-03T17:15:31;13.57;;;9.77;;
22752;SDS011;11543;43.144;24.684;2022-09-03T17:20:48;21.15;;;11.75;;
22752;SDS011;11543;43.144;24.684;2022-09-03T17:26:10;37.63;;;17.52;;
22752;SDS011;11543;43.144;24.684;2022-09-03T17:28:56;33.22;;;16.10;;
22752;SDS011;11543;43.144;24.684;2022-09-03T17:40:19;51.88;;;20.63;;
22752;SDS011;11543;43.144;24.684;2022-09-03T17:43:31;36.35;;;16.25;;
22752;SDS011;11543;43.144;24.684;2022-09-03T17:49:41;37.60;;;17.67;;
22752;SDS011;11543;43.144;24.684;2022-09-03T17:55:43;17.02;;;10.38;;
22752;SDS011;11543;43.144;24.684;2022-09-03T17:58:13;18.38;;;10.48;;
22752;SDS011;11543;43.144;24.684;2022-09-03T18:01:06;39.17;;;18.90;;
22752;SDS011;11543;43.144;24.684;2022-09-03T18:03:38;19.75;;;12.18;;
22752;SDS011;11543;43.144;24.684;2022-09-03T18:06:35;18.77;;;11.45;;
22752;SDS011;11543;43.144;24.684;2022-09-03T18:11:46;24.42;;;14.20;;
22752;SDS011;11543;43.144;24.684;2022-09-03T18:25:42;16.20;;;11.27;;
22752;SDS011;11543;43.144;24.684;2022-09-03T18:28:33;17.20;;;10.77;;
22752;SDS011;11543;43.144;24.684;2022-09-03T18:31:24;16.00;;;11.10;;
22752;SDS011;11543;43.144;24.684;2022-09-03T18:34:08;27.17;;;13.60;;
22752;SDS011;11543;43.144;24.684;2022-09-03T18:36:55;21.02;;;12.00;;
22752;SDS011;11543;43.144;24.684;2022-09-03T18:39:40;28.45;;;14.82;;
22752;SDS011;11543;43.144;24.684;2022-09-03T18:42:48;26.70;;;14.07;;
22752;SDS011;11543;43.144;24.684;2022-09-03T18:49:48;20.30;;;11.20;;
22752;SDS011;11543;43.144;24.684;2022-09-03T18:55:39;15.80;;;9.77;;
22752;SDS011;11543;43.144;24.684;2022-09-03T19:01:27;13.60;;;9.70;;
22752;SDS011;11543;43.144;24.684;2022-09-03T19:04:27;17.98;;;11.02;;
22752;SDS011;11543;43.144;24.684;2022-09-03T19:13:45;16.67;;;10.98;;
22752;SDS011;11543;43.144;24.684;2022-09-03T19:22:41;17.55;;;12.00;;
22752;SDS011;11543;43.144;24.684;2022-09-03T19:25:31;16.45;;;11.85;;
22752;SDS011;11543;43.144;24.684;2022-09-03T19:28:19;16.92;;;12.15;;
22752;SDS011;11543;43.144;24.684;2022-09-03T19:34:04;18.83;;;12.43;;
22752;SDS011;11543;43.144;24.684;2022-09-03T19:37:07;17.27;;;11.85;;
22752;SDS011;11543;43.144;24.684;2022-09-03T19:54:47;47.72;;;29.77;;
22752;SDS011;11543;43.144;24.684;2022-09-03T19:57:36;49.25;;;30.13;;
22752;SDS011;11543;43.144;24.684;2022-09-03T20:00:22;425.33;;;237.00;;
22752;SDS011;11543;43.144;24.684;2022-09-03T20:03:06;546.17;;;320.45;;
22752;SDS011;11543;43.144;24.684;2022-09-03T20:05:50;223.77;;;145.77;;
22752;SDS011;11543;43.144;24.684;2022-09-03T20:08:35;74.07;;;48.80;;
22752;SDS011;11543;43.144;24.684;2022-09-03T20:11:20;78.53;;;50.65;;
22752;SDS011;11543;43.144;24.684;2022-09-03T20:13:48;75.43;;;46.42;;
22752;SDS011;11543;43.144;24.684;2022-09-03T20:19:37;23.08;;;16.20;;
22752;SDS011;11543;43.144;24.684;2022-09-03T20:30:13;24.52;;;17.00;;
22752;SDS011;11543;43.144;24.684;2022-09-03T20:38:08;21.45;;;14.20;;
22752;SDS011;11543;43.144;24.684;2022-09-03T20:40:53;19.98;;;13.40;;
22752;SDS011;11543;43.144;24.684;2022-09-03T20:49:47;19.17;;;12.93;;
22752;SDS011;11543;43.144;24.684;2022-09-03T20:52:12;19.75;;;12.30;;
22752;SDS011;11543;43.144;24.684;2022-09-03T20:55:19;17.77;;;12.88;;
22752;SDS011;11543;43.144;24.684;2022-09-03T21:00:46;19.35;;;12.23;;
22752;SDS011;11543;43.144;24.684;2022-09-03T21:03:31;18.55;;;11.90;;
22752;SDS011;11543;43.144;24.684;2022-09-03T21:13:56;18.25;;;13.63;;
22752;SDS011;11543;43.144;24.684;2022-09-03T21:24:54;22.35;;;13.30;;
22752;SDS011;11543;43.144;24.684;2022-09-03T21:27:25;18.98;;;12.30;;
22752;SDS011;11543;43.144;24.684;2022-09-03T21:30:05;23.15;;;12.95;;
22752;SDS011;11543;43.144;24.684;2022-09-03T21:35:07;16.60;;;11.50;;
22752;SDS011;11543;43.144;24.684;2022-09-03T21:37:40;20.00;;;12.07;;
22752;SDS011;11543;43.144;24.684;2022-09-03T21:40:13;15.50;;;11.93;;
22752;SDS011;11543;43.144;24.684;2022-09-03T21:43:41;21.05;;;12.35;;
22752;SDS011;11543;43.144;24.684;2022-09-03T21:48:16;19.98;;;11.75;;
22752;SDS011;11543;43.144;24.684;2022-09-03T21:50:53;18.55;;;11.48;;
22752;SDS011;11543;43.144;24.684;2022-09-03T21:59:36;18.40;;;11.90;;
22752;SDS011;11543;43.144;24.684;2022-09-03T22:04:27;19.98;;;11.23;;
22752;SDS011;11543;43.144;24.684;2022-09-03T22:12:02;18.98;;;11.60;;
22752;SDS011;11543;43.144;24.684;2022-09-03T22:14:40;18.15;;;11.27;;
22752;SDS011;11543;43.144;24.684;2022-09-03T22:19:58;18.85;;;12.43;;
22752;SDS011;11543;43.144;24.684;2022-09-03T22:25:10;16.77;;;12.18;;
22752;SDS011;11543;43.144;24.684;2022-09-03T22:30:17;18.55;;;12.02;;
22752;SDS011;11543;43.144;24.684;2022-09-03T22:41:52;15.70;;;11.65;;